Portada
METAR-TAF:

METAR-TAF

Aeroports :

Novosibirsk, Rússia

latitud: 55-01N, longitud: 082-38E, altitud: 111 m

Observació

L'informe es va fer fa 14 minuts, a les 05:00 UTC
Vent 4 kt del Oest/Nord-Oest
Temperatura 23°C
Humitat 69%
Pressió 1008 hPa
Visibilitat 10 km o més
Cel ennuvolat a una alçada de 3600 ft

METAR: UNNT 070500Z 29002MPS 9999 BKN036 23/17 Q1008 R25/090070 R16/090070 NOSIG RMK QFE746/0995

Hora: 12:14 (05:14 UTC)

Pronòstic

L'informe es va fer fa 3 hores i 14 minuts, a les 02:00 UTC
Pronòstic vàlid del 07 a les 03 UTC al 08 a les 03 UTC
Vent 6 kt del Nord-Oest amb ràfegues de 16 kt
Visibilitat 10 km o més
Cel ennuvolat a una alçada de 4000 ft, Cumulonimbus.
Temporalment
l' 07 a les 03 UTC al 07 a les 16 UTC
Vent 12 kt del Nord amb ràfegues de 23 kt
xàfecs de pluja
Probabilitat 40% :
Temporalment
l' 07 a les 03 UTC al 07 a les 16 UTC
tempesta, pluja

TAF: UNNT 070200Z 0703/0803 31003G08MPS 9999 BKN040CB TEMPO 0703/0716 36006G12MPS -SHRA PROB40 TEMPO 0703/0716 -TSRA

Observacions i pronòstics meteorològics de més de 4000 aeroports (METAR i TAF).

Les estacions disponibles són els punts grocs i vermells al mapa.

Posi el ratolí al punt desitjat per veure el nom de l'estació.

Feu clic per veure les observacions i els pronòstics meteorològics.

Per canviar el mapa: feu clic els botons verds amb una creu de color negre per apropar; al botó verd amb un guió per allunyar la imatge; o en les fletxes verdes per a mapes adjacents.


METAR-TAF: